createdAt,value
2022-11-29T00:04:05.548Z,98168.47
2022-11-29T00:09:12.386Z,98160.44
2022-11-29T00:14:17.375Z,98171.84
2022-11-29T00:19:20.262Z,98169.34
2022-11-29T00:24:24.617Z,98161.25
2022-11-29T00:29:28.688Z,98169.34
2022-11-29T00:34:31.465Z,98166.47
2022-11-29T00:39:35.596Z,98171.84
2022-11-29T00:44:38.397Z,98174.41
2022-11-29T00:49:41.933Z,98162.22
2022-11-29T00:54:46.259Z,98178.25
2022-11-29T00:59:49.317Z,98171.25
2022-11-29T01:04:52.677Z,98175.59
2022-11-29T01:10:22.357Z,98183.53
2022-11-29T01:15:25.220Z,98184.59
2022-11-29T01:20:28.310Z,98182.66
2022-11-29T01:25:32.644Z,98183.53
2022-11-29T01:30:35.387Z,98180.16
2022-11-29T01:35:38.127Z,98196.03
2022-11-29T01:40:42.317Z,98196.88
2022-11-29T01:45:46.088Z,98202.06
2022-11-29T01:50:48.917Z,98199.53
2022-11-29T01:55:55.139Z,98191.47
2022-11-29T02:00:58.675Z,98206.41
2022-11-29T02:06:02.555Z,98199.41
2022-11-29T02:11:38.122Z,98201.94
2022-11-29T02:16:56.551Z,98199.19
2022-11-29T02:22:03.961Z,98204.59
2022-11-29T02:27:13.522Z,98206.41
2022-11-29T02:33:00.400Z,98203.84
2022-11-29T02:38:22.864Z,98205.03
2022-11-29T02:43:47.460Z,98200.94
2022-11-29T02:49:04.131Z,98203.06
2022-11-29T02:54:16.652Z,98199.69
2022-11-29T02:59:35.219Z,98210.06
2022-11-29T03:04:46.371Z,98214.41
2022-11-29T03:09:57.800Z,98212.56
2022-11-29T03:15:11.964Z,98231.75
2022-11-29T03:20:28.194Z,98220.09
2022-11-29T03:25:37.865Z,98217.44
2022-11-29T03:30:47.278Z,98226.94
2022-11-29T03:35:58.043Z,98235.22
2022-11-29T03:41:11.245Z,98235.69
2022-11-29T03:46:20.228Z,98229.41
2022-11-29T03:51:34.530Z,98240.13
2022-11-29T03:56:39.572Z,98234.72
2022-11-29T04:02:17.194Z,98241.69
2022-11-29T04:07:44.035Z,98239.69
2022-11-29T04:13:22.074Z,98240.50
2022-11-29T04:18:43.618Z,98240.50
2022-11-29T04:24:38.149Z,98247.41
2022-11-29T04:29:56.308Z,98266.66
2022-11-29T04:35:15.765Z,98263.94
2022-11-29T04:40:32.801Z,98271.88
2022-11-29T04:45:54.541Z,98266.44
2022-11-29T04:51:12.095Z,98266.56
2022-11-29T04:56:22.442Z,98277.91
2022-11-29T05:01:33.561Z,98284.88
2022-11-29T05:06:41.660Z,98290.91
2022-11-29T05:11:58.773Z,98293.22
2022-11-29T05:17:09.591Z,98296.50
2022-11-29T05:22:23.946Z,98303.72
2022-11-29T05:27:43.030Z,98302.75
2022-11-29T05:32:58.814Z,98310.47
2022-11-29T05:38:13.781Z,98306.88
2022-11-29T05:43:31.125Z,98313.63
2022-11-29T05:48:45.347Z,98317.00
2022-11-29T05:53:56.173Z,98316.06
2022-11-29T05:59:02.222Z,98325.59
2022-11-29T06:04:15.307Z,98332.34
2022-11-29T06:09:27.645Z,98334.91
2022-11-29T06:14:53.461Z,98338.16
2022-11-29T06:20:31.969Z,98340.59
2022-11-29T06:25:48.590Z,98343.88
2022-11-29T06:31:00.987Z,98346.28
2022-11-29T06:36:15.739Z,98357.53
2022-11-29T06:41:23.336Z,98343.31
2022-11-29T06:46:37.151Z,98345.00
2022-11-29T06:51:52.655Z,98351.03
2022-11-29T06:57:07.988Z,98354.44
2022-11-29T07:02:29.309Z,98364.81
2022-11-29T07:07:35.133Z,98369.13
2022-11-29T07:12:40.138Z,98369.00
2022-11-29T07:17:59.356Z,98375.91
2022-11-29T07:23:12.221Z,98381.94
2022-11-29T07:28:31.171Z,98384.50
2022-11-29T07:33:45.283Z,98388.72
2022-11-29T07:39:01.273Z,98387.66
2022-11-29T07:44:12.576Z,98397.16
2022-11-29T07:49:15.582Z,98401.41
2022-11-29T07:54:20.977Z,98404.88
2022-11-29T07:59:25.949Z,98401.03
2022-11-29T08:04:28.738Z,98407.72
2022-11-29T08:09:31.986Z,98415.13
2022-11-29T08:14:36.561Z,98419.47
2022-11-29T08:19:39.260Z,98427.28
2022-11-29T08:24:43.258Z,98427.09
2022-11-29T08:29:47.749Z,98440.44
2022-11-29T08:34:50.725Z,98446.25
2022-11-29T08:39:53.492Z,98457.59
2022-11-29T08:44:57.890Z,98453.66
2022-11-29T08:50:03.761Z,98466.69
2022-11-29T08:55:07.422Z,98470.72
2022-11-29T09:00:13.985Z,98473.38
2022-11-29T09:05:16.858Z,98477.72
2022-11-29T09:10:20.924Z,98484.56
2022-11-29T09:15:25.107Z,98492.22
2022-11-29T09:20:27.914Z,98488.47
2022-11-29T09:25:30.866Z,98493.22
2022-11-29T09:30:38.081Z,98495.88
2022-11-29T09:35:41.779Z,98506.25
2022-11-29T09:40:53.238Z,98502.63
2022-11-29T09:46:03.231Z,98510.81
2022-11-29T09:51:18.763Z,98513.03
2022-11-29T09:56:29.090Z,98509.41
2022-11-29T10:01:38.109Z,98513.66
2022-11-29T10:06:51.114Z,98517.88
2022-11-29T10:12:06.601Z,98519.47
2022-11-29T10:17:23.474Z,98515.63
2022-11-29T10:22:40.837Z,98522.03
2022-11-29T10:27:43.822Z,98521.66
2022-11-29T10:32:52.614Z,98524.81
2022-11-29T10:38:29.121Z,98528.81
2022-11-29T10:43:22.877Z,98528.34
2022-11-29T10:48:31.834Z,98529.47
2022-11-29T10:53:38.354Z,98531.94
2022-11-29T10:58:58.608Z,98527.88
2022-11-29T11:04:05.090Z,98527.06
2022-11-29T11:09:15.967Z,98530.97
2022-11-29T11:14:22.080Z,98524.94
2022-11-29T11:19:31.917Z,98534.72
2022-11-29T11:24:41.412Z,98536.19
2022-11-29T11:29:46.922Z,98535.94
2022-11-29T11:34:55.312Z,98539.19
2022-11-29T11:40:00.570Z,98535.59
2022-11-29T11:45:06.602Z,98545.88
2022-11-29T11:50:17.642Z,98542.25
2022-11-29T11:55:33.200Z,98550.22
2022-11-29T12:06:28.361Z,98550.53
2022-11-29T12:11:41.071Z,98548.75
2022-11-29T12:16:46.287Z,98544.50
2022-11-29T12:21:57.528Z,98548.59
2022-11-29T12:27:05.055Z,98548.88
2022-11-29T12:32:24.684Z,98553.09
2022-11-29T12:37:36.224Z,98556.63
2022-11-29T12:42:53.873Z,98552.00
2022-11-29T12:48:05.842Z,98557.44
2022-11-29T12:53:27.115Z,98560.09
2022-11-29T12:58:45.638Z,98562.13
2022-11-29T13:03:59.178Z,98565.66
2022-11-29T13:09:26.742Z,98573.50
2022-11-29T13:14:44.027Z,98577.50
2022-11-29T13:19:52.972Z,98576.28
2022-11-29T13:25:02.364Z,98585.88
2022-11-29T13:30:06.758Z,98595.41
2022-11-29T13:35:21.404Z,98594.84
2022-11-29T13:40:37.968Z,98597.72
2022-11-29T13:45:45.477Z,98602.09
2022-11-29T13:50:48.335Z,98602.91
2022-11-29T13:56:00.630Z,98605.22
2022-11-29T14:01:08.028Z,98614.41
2022-11-29T14:06:22.161Z,98621.66
2022-11-29T14:11:32.870Z,98621.03
2022-11-29T14:16:40.181Z,98621.63
2022-11-29T14:22:31.546Z,98626.44
2022-11-29T14:27:56.225Z,98622.06
2022-11-29T14:33:04.444Z,98616.72
2022-11-29T14:38:15.230Z,98626.81
2022-11-29T14:43:25.719Z,98626.53
2022-11-29T14:48:34.015Z,98634.09
2022-11-29T14:53:38.762Z,98636.03
2022-11-29T14:58:42.866Z,98633.06
2022-11-29T15:03:50.478Z,98641.09
2022-11-29T15:09:01.704Z,98647.31
2022-11-29T15:14:09.261Z,98639.47
2022-11-29T15:19:31.609Z,98649.94
2022-11-29T15:24:51.106Z,98654.41
2022-11-29T15:29:55.571Z,98659.63
2022-11-29T15:34:59.474Z,98670.88
2022-11-29T15:40:04.708Z,98671.50
2022-11-29T15:45:30.765Z,98672.47
2022-11-29T15:50:35.402Z,98683.84
2022-11-29T15:55:38.660Z,98686.25
2022-11-29T16:00:44.860Z,98689.75
2022-11-29T16:05:51.978Z,98698.22
2022-11-29T16:10:55.094Z,98706.66
2022-11-29T16:16:07.819Z,98693.91
2022-11-29T16:21:24.336Z,98698.78
2022-11-29T16:26:30.766Z,98691.22
2022-11-29T16:31:36.610Z,98703.84
2022-11-29T16:36:39.510Z,98701.47
2022-11-29T16:41:42.721Z,98711.53
2022-11-29T16:46:47.289Z,98711.94
2022-11-29T16:51:55.976Z,98717.53
2022-11-29T16:56:58.967Z,98722.00
2022-11-29T17:02:03.413Z,98726.72
2022-11-29T17:07:08.612Z,98722.47
2022-11-29T17:12:14.496Z,98724.38
2022-11-29T17:17:20.762Z,98728.91
2022-11-29T17:22:23.568Z,98725.72
2022-11-29T17:27:26.372Z,98727.69
2022-11-29T17:32:30.630Z,98727.63
2022-11-29T17:37:33.385Z,98725.81
2022-11-29T17:42:36.325Z,98734.50
2022-11-29T17:47:40.478Z,98738.84
2022-11-29T17:52:43.217Z,98748.41
2022-11-29T17:57:46.067Z,98743.66
2022-11-29T18:02:50.232Z,98749.50
2022-11-29T18:07:59.263Z,98753.63
2022-11-29T18:13:02.273Z,98758.56
2022-11-29T18:18:06.713Z,98752.22
2022-11-29T18:23:09.516Z,98759.00
2022-11-29T18:28:13.722Z,98751.91
2022-11-29T18:33:18.331Z,98757.00
2022-11-29T18:38:21.378Z,98769.94
2022-11-29T18:43:24.221Z,98761.03
2022-11-29T18:48:31.097Z,98769.78
2022-11-29T18:53:36.111Z,98769.66
2022-11-29T18:58:39.320Z,98765.22
2022-11-29T19:03:45.761Z,98772.41
2022-11-29T19:08:49.249Z,98777.72
2022-11-29T19:13:56.153Z,98782.16
2022-11-29T19:19:01.368Z,98785.00
2022-11-29T19:24:07.576Z,98788.78
2022-11-29T19:29:10.389Z,98782.94
2022-11-29T19:34:14.904Z,98790.03
2022-11-29T19:39:18.448Z,98790.22
2022-11-29T19:44:23.000Z,98795.53
2022-11-29T19:49:30.849Z,98787.78
2022-11-29T19:54:33.645Z,98794.03
2022-11-29T19:59:36.606Z,98798.38
2022-11-29T20:04:40.685Z,98797.63
2022-11-29T20:09:43.947Z,98803.59
2022-11-29T20:14:46.855Z,98813.13
2022-11-29T20:19:51.061Z,98810.47
2022-11-29T20:24:54.623Z,98816.63
2022-11-29T20:29:57.514Z,98816.63
2022-11-29T20:35:02.677Z,98816.50
2022-11-29T20:40:10.760Z,98817.25
2022-11-29T20:45:15.543Z,98812.91
2022-11-29T20:50:23.720Z,98813.66
2022-11-29T20:55:27.103Z,98815.28
2022-11-29T21:00:31.297Z,98812.50
2022-11-29T21:05:38.376Z,98810.63
2022-11-29T21:10:43.499Z,98810.72
2022-11-29T21:15:46.905Z,98811.56
2022-11-29T21:21:01.512Z,98809.03
2022-11-29T21:26:11.364Z,98816.03
2022-11-29T21:31:17.673Z,98814.34
2022-11-29T21:36:22.536Z,98809.78
2022-11-29T21:41:25.334Z,98823.97
2022-11-29T21:46:28.102Z,98823.09
2022-11-29T21:51:32.353Z,98820.56
2022-11-29T21:56:35.206Z,98818.69
2022-11-29T22:01:38.189Z,98818.75
2022-11-29T22:06:42.518Z,98825.88
2022-11-29T22:11:45.640Z,98823.22
2022-11-29T22:16:50.204Z,98832.00
2022-11-29T22:21:57.136Z,98832.88
2022-11-29T22:27:00.228Z,98834.66
2022-11-29T22:32:03.195Z,98841.00
2022-11-29T22:37:07.340Z,98843.53
2022-11-29T22:42:10.202Z,98842.72
2022-11-29T22:47:13.610Z,98830.50
2022-11-29T22:52:17.850Z,98832.41
2022-11-29T22:57:20.614Z,98833.34
2022-11-29T23:02:23.854Z,98842.16
2022-11-29T23:07:28.023Z,98841.28
2022-11-29T23:12:30.808Z,98849.25
2022-11-29T23:17:33.520Z,98854.44
2022-11-29T23:22:39.196Z,98857.19
2022-11-29T23:27:41.985Z,98860.91
2022-11-29T23:32:44.735Z,98858.25
2022-11-29T23:37:48.905Z,98855.69
2022-11-29T23:42:52.114Z,98861.16
2022-11-29T23:47:54.913Z,98844.34
2022-11-29T23:52:59.057Z,98852.28
2022-11-29T23:58:02.188Z,98850.47
